createdAt,value
2022-08-17T00:00:57.296Z,100190.63
2022-08-17T00:02:05.804Z,100196.66
2022-08-17T00:03:33.411Z,100192.56
2022-08-17T00:04:35.573Z,100193.59
2022-08-17T00:06:12.015Z,100188.13
2022-08-17T00:07:13.619Z,100195.94
2022-08-17T00:08:17.578Z,100192.03
2022-08-17T00:09:19.583Z,100186.94
2022-08-17T00:10:21.711Z,100185.88
2022-08-17T00:11:31.047Z,100184.19
2022-08-17T00:12:44.682Z,100187.75
2022-08-17T00:13:48.669Z,100190.09
2022-08-17T00:14:50.601Z,100181.50
2022-08-17T00:15:55.623Z,100189.16
2022-08-17T00:16:58.425Z,100189.31
2022-08-17T00:18:00.163Z,100196.69
2022-08-17T00:19:09.547Z,100194.47
2022-08-17T00:20:12.278Z,100195.19
2022-08-17T00:21:15.471Z,100189.53
2022-08-17T00:22:31.567Z,100184.91
2022-08-17T00:23:37.292Z,100197.16
2022-08-17T00:24:38.964Z,100190.09
2022-08-17T00:25:44.396Z,100193.88
2022-08-17T00:26:47.321Z,100193.00
2022-08-17T00:27:49.179Z,100190.78
2022-08-17T00:28:51.232Z,100185.38
2022-08-17T00:29:53.587Z,100191.22
2022-08-17T00:30:55.444Z,100198.03
2022-08-17T00:31:57.061Z,100194.31
2022-08-17T00:33:12.527Z,100192.59
2022-08-17T00:34:20.416Z,100192.53
2022-08-17T00:35:24.170Z,100183.25
2022-08-17T00:36:26.064Z,100184.81
2022-08-17T00:37:27.690Z,100190.13
2022-08-17T00:38:29.713Z,100192.41
2022-08-17T00:39:31.467Z,100191.50
2022-08-17T00:40:44.200Z,100183.47
2022-08-17T00:41:47.001Z,100186.03
2022-08-17T00:42:49.973Z,100186.22
2022-08-17T00:43:55.788Z,100189.47
2022-08-17T00:44:57.570Z,100191.03
2022-08-17T00:46:02.163Z,100192.06
2022-08-17T00:47:03.876Z,100187.28
2022-08-17T00:48:05.579Z,100181.34
2022-08-17T00:49:26.218Z,100188.53
2022-08-17T00:50:27.851Z,100185.56
2022-08-17T00:51:41.180Z,100184.19
2022-08-17T00:52:52.234Z,100186.03
2022-08-17T00:54:00.025Z,100185.03
2022-08-17T00:55:02.538Z,100179.06
2022-08-17T00:56:08.831Z,100182.50
2022-08-17T00:57:21.164Z,100185.94
2022-08-17T00:58:30.402Z,100176.16
2022-08-17T00:59:43.791Z,100180.34
2022-08-17T01:00:47.345Z,100180.88
2022-08-17T01:01:50.717Z,100183.75
2022-08-17T01:02:58.135Z,100181.66
2022-08-17T01:04:01.432Z,100184.91
2022-08-17T01:05:03.385Z,100185.31
2022-08-17T01:06:08.192Z,100188.75
2022-08-17T01:07:12.116Z,100185.16
2022-08-17T01:08:16.999Z,100182.09
2022-08-17T01:09:20.353Z,100185.00
2022-08-17T01:10:58.557Z,100181.72
2022-08-17T01:11:52.271Z,100186.19
2022-08-17T01:12:54.210Z,100191.81
2022-08-17T01:13:55.831Z,100186.81
2022-08-17T01:14:57.466Z,100191.91
2022-08-17T01:16:06.314Z,100181.50
2022-08-17T01:17:09.655Z,100186.28
2022-08-17T01:18:13.683Z,100191.75
2022-08-17T01:19:20.367Z,100185.56
2022-08-17T01:20:22.118Z,100188.47
2022-08-17T01:21:46.891Z,100186.03
2022-08-17T01:22:48.967Z,100194.25
2022-08-17T01:23:50.726Z,100190.81
2022-08-17T01:25:01.934Z,100182.59
2022-08-17T01:26:06.357Z,100194.38
2022-08-17T01:27:10.384Z,100196.72
2022-08-17T01:28:12.282Z,100196.19
2022-08-17T01:29:35.256Z,100181.81
2022-08-17T01:30:57.901Z,100189.31
2022-08-17T01:32:03.622Z,100190.34
2022-08-17T01:33:05.818Z,100189.47
2022-08-17T01:34:10.459Z,100188.47
2022-08-17T01:35:12.360Z,100186.56
2022-08-17T01:36:14.360Z,100187.63
2022-08-17T01:37:17.272Z,100189.31
2022-08-17T01:38:19.725Z,100189.69
2022-08-17T01:39:31.819Z,100192.03
2022-08-17T01:40:39.069Z,100188.63
2022-08-17T01:41:41.477Z,100193.78
2022-08-17T01:42:56.802Z,100198.06
2022-08-17T01:44:04.249Z,100198.91
2022-08-17T01:45:16.782Z,100192.59
2022-08-17T01:46:24.891Z,100195.19
2022-08-17T01:47:26.549Z,100197.91
2022-08-17T01:48:34.212Z,100199.63
2022-08-17T01:49:36.013Z,100199.94
2022-08-17T01:50:40.803Z,100198.84
2022-08-17T01:51:42.447Z,100197.94
2022-08-17T01:52:46.510Z,100195.31
2022-08-17T01:53:52.801Z,100193.25
2022-08-17T01:54:55.525Z,100204.06
2022-08-17T01:56:01.148Z,100204.34
2022-08-17T01:57:02.940Z,100195.78
2022-08-17T01:58:08.885Z,100198.19
2022-08-17T01:59:11.160Z,100197.34
2022-08-17T02:00:13.696Z,100201.94
2022-08-17T02:01:18.160Z,100198.72
2022-08-17T02:02:30.467Z,100193.41
2022-08-17T02:03:34.545Z,100200.22
2022-08-17T02:04:36.778Z,100198.81
2022-08-17T02:05:39.786Z,100198.25
2022-08-17T02:06:53.415Z,100202.19
2022-08-17T02:08:00.175Z,100193.41
2022-08-17T02:09:03.865Z,100197.59
2022-08-17T02:10:16.677Z,100201.31
2022-08-17T02:11:22.322Z,100195.84
2022-08-17T02:12:37.880Z,100199.41
2022-08-17T02:13:42.253Z,100195.28
2022-08-17T02:14:44.108Z,100200.91
2022-08-17T02:15:46.320Z,100197.78
2022-08-17T02:16:47.935Z,100198.31
2022-08-17T02:17:49.725Z,100192.84
2022-08-17T02:18:56.480Z,100192.41
2022-08-17T02:19:58.295Z,100190.88
2022-08-17T02:21:00.494Z,100191.44
2022-08-17T02:22:02.103Z,100188.69
2022-08-17T02:23:06.210Z,100191.59
2022-08-17T02:24:13.372Z,100200.69
2022-08-17T02:25:17.845Z,100197.53
2022-08-17T02:26:26.358Z,100193.94
2022-08-17T02:27:28.650Z,100198.94
2022-08-17T02:28:30.962Z,100197.25
2022-08-17T02:29:32.749Z,100207.63
2022-08-17T02:31:02.095Z,100195.44
2022-08-17T02:31:58.639Z,100202.06
2022-08-17T02:33:04.135Z,100190.19
2022-08-17T02:34:08.335Z,100193.09
2022-08-17T02:35:10.666Z,100193.53
2022-08-17T02:36:13.047Z,100196.59
2022-08-17T02:37:17.827Z,100193.72
2022-08-17T02:38:19.477Z,100190.09
2022-08-17T02:39:21.132Z,100193.16
2022-08-17T02:40:36.464Z,100194.72
2022-08-17T02:41:40.005Z,100192.31
2022-08-17T02:42:45.144Z,100194.00
2022-08-17T02:43:47.043Z,100187.38
2022-08-17T02:44:48.730Z,100191.13
2022-08-17T02:45:50.930Z,100192.31
2022-08-17T02:46:53.320Z,100187.53
2022-08-17T02:47:55.298Z,100189.09
2022-08-17T02:48:59.429Z,100184.88
2022-08-17T02:50:01.236Z,100188.00
2022-08-17T02:51:03.978Z,100191.13
2022-08-17T02:52:07.804Z,100188.56
2022-08-17T02:53:09.591Z,100189.72
2022-08-17T02:54:40.354Z,100186.03
2022-08-17T02:55:36.907Z,100189.31
2022-08-17T02:56:38.517Z,100190.44
2022-08-17T02:57:40.296Z,100192.19
2022-08-17T02:58:42.109Z,100194.25
2022-08-17T02:59:49.036Z,100191.53
2022-08-17T03:00:50.982Z,100198.00
2022-08-17T03:01:55.675Z,100200.72
2022-08-17T03:02:58.018Z,100192.06
2022-08-17T03:04:00.055Z,100189.66
2022-08-17T03:05:01.676Z,100190.41
2022-08-17T03:06:04.980Z,100191.84
2022-08-17T03:07:06.823Z,100186.41
2022-08-17T03:08:13.105Z,100193.44
2022-08-17T03:09:16.925Z,100192.28
2022-08-17T03:10:21.481Z,100193.72
2022-08-17T03:11:23.973Z,100198.50
2022-08-17T03:12:29.110Z,100195.75
2022-08-17T03:13:30.973Z,100192.72
2022-08-17T03:14:32.956Z,100196.47
2022-08-17T03:15:35.187Z,100201.34
2022-08-17T03:16:37.199Z,100203.09
2022-08-17T03:17:41.381Z,100203.25
2022-08-17T03:18:45.125Z,100202.38
2022-08-17T03:19:47.298Z,100198.22
2022-08-17T03:20:49.728Z,100201.09
2022-08-17T03:21:54.810Z,100200.09
2022-08-17T03:23:01.805Z,100209.28
2022-08-17T03:24:09.262Z,100207.84
2022-08-17T03:25:15.361Z,100204.09
2022-08-17T03:26:21.245Z,100203.25
2022-08-17T03:27:25.504Z,100205.97
2022-08-17T03:28:28.252Z,100204.22
2022-08-17T03:29:29.995Z,100200.09
2022-08-17T03:30:33.056Z,100203.53
2022-08-17T03:31:34.721Z,100209.88
2022-08-17T03:32:42.150Z,100207.53
2022-08-17T03:33:46.771Z,100204.41
2022-08-17T03:34:48.839Z,100208.25
2022-08-17T03:35:51.311Z,100208.09
2022-08-17T03:36:52.917Z,100204.66
2022-08-17T03:38:00.692Z,100208.25
2022-08-17T03:39:04.965Z,100198.16
2022-08-17T03:40:08.076Z,100199.19
2022-08-17T03:41:09.916Z,100203.91
2022-08-17T03:42:32.155Z,100200.91
2022-08-17T03:43:34.873Z,100201.63
2022-08-17T03:44:36.531Z,100195.78
2022-08-17T03:45:57.790Z,100206.47
2022-08-17T03:47:18.137Z,100194.84
2022-08-17T03:48:39.217Z,100199.16
2022-08-17T03:49:59.131Z,100204.47
2022-08-17T03:51:19.437Z,100199.47
2022-08-17T03:52:39.618Z,100194.88
2022-08-17T03:54:09.197Z,100200.75
2022-08-17T03:55:30.767Z,100187.69
2022-08-17T03:56:45.447Z,100194.03
2022-08-17T03:57:49.115Z,100194.72
2022-08-17T03:58:50.842Z,100189.84
2022-08-17T03:59:53.292Z,100196.31
2022-08-17T04:00:55.380Z,100192.72
2022-08-17T04:02:00.464Z,100197.00
2022-08-17T04:03:05.778Z,100189.84
2022-08-17T04:04:07.612Z,100194.16
2022-08-17T04:05:09.598Z,100189.53
2022-08-17T04:06:11.243Z,100198.16
2022-08-17T04:07:13.020Z,100187.94
2022-08-17T04:08:14.862Z,100190.34
2022-08-17T04:09:16.562Z,100190.06
2022-08-17T04:10:24.752Z,100192.50
2022-08-17T04:11:28.249Z,100191.50
2022-08-17T04:12:47.016Z,100195.78
2022-08-17T04:13:48.713Z,100188.91
2022-08-17T04:14:52.961Z,100189.47
2022-08-17T04:15:57.281Z,100197.34
2022-08-17T04:16:58.954Z,100193.31
2022-08-17T04:18:00.875Z,100197.19
2022-08-17T04:19:05.568Z,100192.56
2022-08-17T04:20:07.882Z,100197.31
2022-08-17T04:21:09.800Z,100196.94
2022-08-17T04:22:11.407Z,100197.91
2022-08-17T04:23:34.988Z,100200.19
2022-08-17T04:24:36.605Z,100204.09
2022-08-17T04:25:44.207Z,100199.81
2022-08-17T04:26:53.809Z,100204.78
2022-08-17T04:27:57.054Z,100197.06
2022-08-17T04:28:59.391Z,100200.69
2022-08-17T04:30:01.811Z,100194.50
2022-08-17T04:31:06.203Z,100201.72
2022-08-17T04:32:08.516Z,100201.88
2022-08-17T04:33:13.985Z,100200.56
2022-08-17T04:46:07.159Z,100202.72
2022-08-17T04:47:10.624Z,100205.88
2022-08-17T04:48:15.458Z,100209.19
2022-08-17T04:49:17.862Z,100206.31
2022-08-17T04:50:19.544Z,100203.28
2022-08-17T04:51:29.335Z,100208.72
2022-08-17T04:52:43.440Z,100205.41
2022-08-17T04:53:54.551Z,100209.88
2022-08-17T04:54:56.917Z,100216.91
2022-08-17T04:55:59.133Z,100208.59
2022-08-17T04:57:01.035Z,100210.16
2022-08-17T04:58:02.957Z,100214.75
2022-08-17T04:59:17.137Z,100215.34
2022-08-17T05:00:19.161Z,100214.75
2022-08-17T05:01:23.803Z,100214.75
2022-08-17T05:02:25.948Z,100207.56
2022-08-17T05:03:28.262Z,100213.94
2022-08-17T05:04:34.581Z,100215.22
2022-08-17T05:05:39.455Z,100217.34
2022-08-17T05:06:41.276Z,100219.00
2022-08-17T05:07:43.069Z,100222.00
2022-08-17T05:08:44.854Z,100219.69
2022-08-17T05:09:46.877Z,100219.94
2022-08-17T05:10:49.404Z,100223.56
2022-08-17T05:11:51.065Z,100217.34
2022-08-17T05:13:11.484Z,100222.09
2022-08-17T05:14:13.818Z,100229.91
2022-08-17T05:15:16.323Z,100222.31
2022-08-17T05:16:19.503Z,100224.91
2022-08-17T05:17:21.138Z,100228.59
2022-08-17T05:18:24.689Z,100230.88
2022-08-17T05:19:26.586Z,100230.56
2022-08-17T05:20:28.648Z,100235.72
2022-08-17T05:21:30.364Z,100230.13
2022-08-17T05:22:32.069Z,100233.56
2022-08-17T05:23:41.858Z,100230.09
2022-08-17T05:24:53.537Z,100232.84
2022-08-17T05:25:56.890Z,100233.06
2022-08-17T05:27:05.045Z,100236.69
2022-08-17T05:28:09.627Z,100234.91
2022-08-17T05:29:11.389Z,100231.75
2022-08-17T05:30:14.806Z,100233.16
2022-08-17T05:31:17.111Z,100226.56
2022-08-17T05:32:37.821Z,100227.25
2022-08-17T05:33:46.211Z,100232.75
2022-08-17T05:34:48.374Z,100233.63
2022-08-17T05:35:52.234Z,100230.88
2022-08-17T05:36:53.903Z,100230.72
2022-08-17T05:37:56.724Z,100233.00
2022-08-17T05:38:59.535Z,100226.06
2022-08-17T05:40:01.401Z,100227.59
2022-08-17T05:41:05.505Z,100234.19
2022-08-17T05:42:07.205Z,100230.81
2022-08-17T05:43:18.040Z,100228.34
2022-08-17T05:44:19.891Z,100236.81
2022-08-17T05:45:39.981Z,100234.66
2022-08-17T05:46:48.868Z,100237.16
2022-08-17T05:47:51.265Z,100243.47
2022-08-17T05:48:57.934Z,100228.72
2022-08-17T05:50:01.425Z,100238.00
2022-08-17T05:51:14.685Z,100241.13
2022-08-17T05:52:42.465Z,100238.81
2022-08-17T05:54:17.886Z,100235.13
2022-08-17T05:55:38.020Z,100237.09
2022-08-17T05:56:55.277Z,100243.19
2022-08-17T05:58:24.332Z,100250.16
2022-08-17T05:59:42.825Z,100250.22
2022-08-17T06:01:07.405Z,100248.03
2022-08-17T06:02:09.082Z,100248.63
2022-08-17T06:03:38.216Z,100254.66
2022-08-17T06:04:51.697Z,100246.34
2022-08-17T06:06:14.641Z,100245.28
2022-08-17T06:07:19.930Z,100249.50
2022-08-17T06:08:33.748Z,100249.09
2022-08-17T06:09:56.995Z,100245.94
2022-08-17T06:11:19.833Z,100259.00
2022-08-17T06:12:31.319Z,100258.56
2022-08-17T06:13:58.218Z,100257.88
2022-08-17T06:14:59.814Z,100262.00
2022-08-17T06:16:33.019Z,100258.28
2022-08-17T06:17:32.454Z,100258.69
2022-08-17T06:18:43.931Z,100257.66
2022-08-17T06:20:00.262Z,100262.84
2022-08-17T06:21:06.065Z,100265.72
2022-08-17T06:22:10.727Z,100258.59
2022-08-17T06:23:24.636Z,100257.09
2022-08-17T06:24:58.255Z,100272.72
2022-08-17T06:26:05.655Z,100262.31
2022-08-17T06:27:19.602Z,100266.59
2022-08-17T06:28:37.566Z,100268.28
2022-08-17T06:30:09.159Z,100268.41
2022-08-17T06:31:22.238Z,100272.72
2022-08-17T06:32:25.086Z,100276.16
2022-08-17T06:33:32.159Z,100268.28
2022-08-17T06:34:34.069Z,100272.56
2022-08-17T06:35:47.896Z,100272.59
2022-08-17T06:37:03.711Z,100272.50
2022-08-17T06:38:34.003Z,100267.69
2022-08-17T06:39:53.057Z,100266.97
2022-08-17T06:41:38.071Z,100271.47
2022-08-17T06:43:06.747Z,100271.19
2022-08-17T06:44:50.279Z,100276.66
2022-08-17T06:46:31.159Z,100268.47
2022-08-17T06:47:44.030Z,100275.81
2022-08-17T06:48:49.653Z,100278.59
2022-08-17T06:50:03.406Z,100272.41
2022-08-17T06:51:26.024Z,100276.03
2022-08-17T06:52:45.858Z,100263.34
2022-08-17T06:53:59.623Z,100273.19
2022-08-17T06:55:09.708Z,100266.84
2022-08-17T06:56:55.244Z,100267.91
2022-08-17T06:58:09.990Z,100266.38
2022-08-17T06:59:20.938Z,100261.94
2022-08-17T07:00:28.126Z,100267.44
2022-08-17T07:01:34.853Z,100263.19
2022-08-17T07:02:52.917Z,100262.31
2022-08-17T07:04:11.501Z,100257.63
2022-08-17T07:05:17.055Z,100266.59
2022-08-17T07:06:23.668Z,100260.00
2022-08-17T07:07:44.123Z,100265.50
2022-08-17T07:09:06.295Z,100265.91
2022-08-17T07:10:09.918Z,100273.13
2022-08-17T07:11:17.283Z,100270.19
2022-08-17T07:12:25.169Z,100268.09
2022-08-17T07:13:29.557Z,100259.56
2022-08-17T07:14:36.999Z,100261.47
2022-08-17T07:15:43.001Z,100263.16
2022-08-17T07:16:51.261Z,100266.16
2022-08-17T07:17:53.107Z,100271.69
2022-08-17T07:18:56.902Z,100270.78
2022-08-17T07:20:06.026Z,100273.09
2022-08-17T07:21:26.214Z,100271.88
2022-08-17T07:22:30.944Z,100274.38
2022-08-17T07:24:30.378Z,100278.41
2022-08-17T07:25:33.090Z,100267.34
2022-08-17T07:26:34.847Z,100277.69
2022-08-17T07:27:43.128Z,100272.13
2022-08-17T07:28:45.277Z,100272.53
2022-08-17T07:29:53.609Z,100269.09
2022-08-17T07:30:55.308Z,100271.50
2022-08-17T07:31:57.461Z,100264.50
2022-08-17T07:33:03.335Z,100267.03
2022-08-17T07:34:14.503Z,100264.06
2022-08-17T07:35:37.602Z,100262.53
2022-08-17T07:36:39.966Z,100269.66
2022-08-17T07:37:55.652Z,100264.50
2022-08-17T07:38:58.308Z,100260.28
2022-08-17T07:40:23.124Z,100259.13
2022-08-17T07:41:24.902Z,100261.38
2022-08-17T07:42:28.525Z,100267.50
2022-08-17T07:43:39.409Z,100256.19
2022-08-17T07:44:54.592Z,100262.13
2022-08-17T07:46:14.980Z,100259.59
2022-08-17T07:47:35.785Z,100256.59
2022-08-17T07:48:39.927Z,100265.56
2022-08-17T07:49:46.411Z,100264.25
2022-08-17T07:50:49.448Z,100265.06
2022-08-17T07:51:52.411Z,100266.31
2022-08-17T07:52:54.256Z,100272.31
2022-08-17T07:54:13.651Z,100266.41
2022-08-17T07:55:29.473Z,100264.41
2022-08-17T07:56:44.203Z,100260.97
2022-08-17T07:57:56.964Z,100258.25
2022-08-17T07:59:16.932Z,100261.22
2022-08-17T08:00:23.814Z,100256.41
2022-08-17T08:01:41.033Z,100266.19
2022-08-17T08:02:46.031Z,100258.53
2022-08-17T08:03:51.038Z,100261.84
2022-08-17T08:05:29.962Z,100256.28
2022-08-17T08:06:54.622Z,100258.63
2022-08-17T08:08:23.059Z,100262.03
2022-08-17T08:09:38.442Z,100271.56
2022-08-17T08:10:45.283Z,100263.97
2022-08-17T08:11:47.285Z,100261.69
2022-08-17T08:13:00.542Z,100268.69
2022-08-17T08:14:33.689Z,100261.38
2022-08-17T08:15:53.494Z,100263.94
2022-08-17T08:16:59.026Z,100262.41
2022-08-17T08:18:03.912Z,100273.88
2022-08-17T08:19:05.589Z,100269.06
2022-08-17T08:20:52.466Z,100266.53
2022-08-17T08:21:49.178Z,100264.94
2022-08-17T08:22:59.487Z,100260.63
2022-08-17T08:24:30.981Z,100263.03
2022-08-17T08:26:01.711Z,100268.13
2022-08-17T08:27:31.518Z,100272.63
2022-08-17T08:28:51.323Z,100261.88
2022-08-17T08:30:00.121Z,100270.22
2022-08-17T08:31:16.255Z,100262.91
2022-08-17T08:32:22.830Z,100267.50
2022-08-17T08:33:56.792Z,100267.84
2022-08-17T08:35:01.416Z,100272.28
2022-08-17T08:37:12.487Z,100267.59
2022-08-17T08:37:44.757Z,100275.34
2022-08-17T08:39:02.946Z,100260.78
2022-08-17T08:40:17.602Z,100262.78
2022-08-17T08:41:44.567Z,100256.59
2022-08-17T08:43:12.742Z,100257.81
2022-08-17T08:45:01.176Z,100253.00
2022-08-17T08:45:58.151Z,100259.22
2022-08-17T08:47:42.666Z,100250.16
2022-08-17T08:48:56.921Z,100248.16
2022-08-17T08:50:30.198Z,100252.28
2022-08-17T08:51:50.653Z,100254.47
2022-08-17T08:53:21.541Z,100252.94
2022-08-17T08:54:48.115Z,100250.13
2022-08-17T08:56:02.878Z,100250.44
2022-08-17T08:57:29.078Z,100239.50
2022-08-17T08:59:10.771Z,100249.28
2022-08-17T09:00:15.426Z,100254.66
2022-08-17T09:01:34.346Z,100255.47
2022-08-17T09:02:50.943Z,100256.72
2022-08-17T09:05:02.637Z,100254.13
2022-08-17T09:06:33.313Z,100259.69
2022-08-17T09:07:58.699Z,100255.22
2022-08-17T09:09:18.860Z,100258.06
2022-08-17T09:10:47.046Z,100261.25
2022-08-17T09:12:13.949Z,100256.03
2022-08-17T09:13:39.098Z,100264.31
2022-08-17T09:14:50.755Z,100255.81
2022-08-17T09:16:02.993Z,100260.28
2022-08-17T09:17:12.631Z,100267.47
2022-08-17T09:19:01.517Z,100266.41
2022-08-17T09:19:54.686Z,100261.59
2022-08-17T09:21:10.367Z,100255.72
2022-08-17T09:22:31.466Z,100260.66
2022-08-17T09:23:41.053Z,100251.38
2022-08-17T09:25:03.295Z,100248.66
2022-08-17T09:26:17.171Z,100250.06
2022-08-17T09:27:23.832Z,100249.94
2022-08-17T09:28:33.802Z,100253.25
2022-08-17T09:29:42.287Z,100248.22
2022-08-17T09:30:47.792Z,100246.13
2022-08-17T09:32:03.673Z,100250.09
2022-08-17T09:33:10.078Z,100244.78
2022-08-17T09:34:16.027Z,100247.69
2022-08-17T09:35:22.769Z,100242.19
2022-08-17T09:36:44.702Z,100239.38
2022-08-17T09:37:46.513Z,100243.19
2022-08-17T09:39:06.225Z,100243.63
2022-08-17T09:40:19.901Z,100248.09
2022-08-17T09:41:50.374Z,100243.69
2022-08-17T09:43:15.077Z,100241.28
2022-08-17T09:45:05.216Z,100240.06
2022-08-17T09:46:09.907Z,100240.25
2022-08-17T09:47:26.282Z,100245.41
2022-08-17T09:48:57.844Z,100249.63
2022-08-17T09:50:15.165Z,100249.59
2022-08-17T09:51:35.058Z,100243.41
2022-08-17T09:52:37.118Z,100253.63
2022-08-17T09:53:39.945Z,100252.41
2022-08-17T09:54:42.402Z,100250.19
2022-08-17T09:56:01.129Z,100248.66
2022-08-17T09:57:32.461Z,100250.13
2022-08-17T09:58:56.435Z,100236.59
2022-08-17T10:00:21.387Z,100234.00
2022-08-17T10:01:35.488Z,100238.19
2022-08-17T10:02:57.212Z,100242.78
2022-08-17T10:04:29.628Z,100239.31
2022-08-17T10:05:39.229Z,100242.50
2022-08-17T10:07:02.141Z,100233.31
2022-08-17T10:08:16.598Z,100232.38
2022-08-17T10:10:02.058Z,100227.81
2022-08-17T10:11:15.871Z,100235.19
2022-08-17T10:12:30.937Z,100223.31
2022-08-17T10:13:52.941Z,100227.53
2022-08-17T10:15:08.077Z,100220.56
2022-08-17T10:16:17.692Z,100228.13
2022-08-17T10:17:38.316Z,100229.75
2022-08-17T10:18:39.811Z,100229.09
2022-08-17T10:19:54.245Z,100232.38
2022-08-17T10:21:21.239Z,100223.63
2022-08-17T10:22:53.063Z,100228.44
2022-08-17T10:24:37.603Z,100224.97
2022-08-17T10:26:13.856Z,100225.47
2022-08-17T10:27:20.839Z,100232.50
2022-08-17T10:28:29.708Z,100226.59
2022-08-17T10:29:49.702Z,100229.38
2022-08-17T10:31:10.493Z,100233.69
2022-08-17T10:32:38.724Z,100226.19
2022-08-17T10:33:57.641Z,100228.47
2022-08-17T10:34:59.387Z,100234.03
2022-08-17T10:36:11.127Z,100236.31
2022-08-17T10:37:50.132Z,100237.84
2022-08-17T10:39:52.056Z,100233.38
2022-08-17T10:41:05.801Z,100229.81
2022-08-17T10:42:30.375Z,100231.72
2022-08-17T10:44:39.608Z,100225.22
2022-08-17T10:45:45.277Z,100231.22
2022-08-17T10:46:57.641Z,100231.16
2022-08-17T10:48:21.967Z,100222.97
2022-08-17T10:49:29.447Z,100230.75
2022-08-17T10:50:56.000Z,100227.06
2022-08-17T10:52:00.895Z,100231.09
2022-08-17T10:53:02.622Z,100229.94
2022-08-17T10:54:27.261Z,100238.16
2022-08-17T10:55:31.191Z,100232.19
2022-08-17T10:56:45.780Z,100240.19
2022-08-17T10:57:50.198Z,100237.50
2022-08-17T10:58:54.693Z,100232.91
2022-08-17T10:59:58.174Z,100240.88
2022-08-17T11:00:59.989Z,100233.78
2022-08-17T11:02:04.796Z,100237.91
2022-08-17T11:03:21.207Z,100237.19
2022-08-17T11:04:42.482Z,100236.31
2022-08-17T11:05:59.092Z,100241.75
2022-08-17T11:07:16.116Z,100239.88
2022-08-17T11:08:36.301Z,100240.84
2022-08-17T11:10:15.536Z,100237.69
2022-08-17T11:11:26.024Z,100234.38
2022-08-17T11:12:52.453Z,100235.56
2022-08-17T11:14:14.192Z,100229.97
2022-08-17T11:15:22.258Z,100227.44
2022-08-17T11:17:01.390Z,100225.22
2022-08-17T11:18:27.346Z,100224.13
2022-08-17T11:19:58.230Z,100234.91
2022-08-17T11:21:38.522Z,100233.97
2022-08-17T11:22:40.161Z,100229.47
2022-08-17T11:24:13.370Z,100235.44
2022-08-17T11:25:34.293Z,100232.81
2022-08-17T11:26:40.907Z,100224.50
2022-08-17T11:27:44.209Z,100223.84
2022-08-17T11:28:52.658Z,100229.19
2022-08-17T11:30:02.298Z,100229.63
2022-08-17T11:31:23.404Z,100223.44
2022-08-17T11:32:54.683Z,100218.75
2022-08-17T11:34:02.162Z,100218.91
2022-08-17T11:35:11.909Z,100220.63
2022-08-17T11:36:45.400Z,100221.63
2022-08-17T11:37:59.149Z,100213.47
2022-08-17T11:39:22.670Z,100217.16
2022-08-17T11:40:46.568Z,100217.66
2022-08-17T11:42:05.486Z,100215.63
2022-08-17T11:43:28.729Z,100210.25
2022-08-17T11:44:45.169Z,100216.66
2022-08-17T11:45:46.995Z,100218.88
2022-08-17T11:47:16.211Z,100225.59
2022-08-17T11:49:06.845Z,100213.97
2022-08-17T11:50:39.335Z,100207.84
2022-08-17T11:51:56.142Z,100213.09
2022-08-17T11:52:57.882Z,100211.66
2022-08-17T11:54:34.408Z,100214.91
2022-08-17T11:55:56.626Z,100206.13
2022-08-17T11:57:02.650Z,100210.03
2022-08-17T11:58:29.054Z,100211.56
2022-08-17T11:59:34.480Z,100208.97
2022-08-17T12:00:44.856Z,100209.19
2022-08-17T12:01:57.224Z,100217.88
2022-08-17T12:03:31.849Z,100214.47
2022-08-17T12:04:35.896Z,100212.34
2022-08-17T12:05:37.849Z,100214.94
2022-08-17T12:06:48.290Z,100215.53
2022-08-17T12:07:59.621Z,100213.38
2022-08-17T12:09:16.349Z,100214.28
2022-08-17T12:10:21.922Z,100215.19
2022-08-17T12:11:55.338Z,100209.22
2022-08-17T12:13:15.534Z,100200.13
2022-08-17T12:15:05.653Z,100203.38
2022-08-17T12:15:56.456Z,100192.81
2022-08-17T12:17:00.572Z,100201.66
2022-08-17T12:18:02.247Z,100199.28
2022-08-17T12:19:05.202Z,100199.91
2022-08-17T12:20:24.235Z,100197.47
2022-08-17T12:21:55.235Z,100203.59
2022-08-17T12:23:22.274Z,100202.84
2022-08-17T12:24:31.256Z,100198.81
2022-08-17T12:25:56.823Z,100195.34
2022-08-17T12:27:01.324Z,100199.63
2022-08-17T12:28:06.631Z,100198.88
2022-08-17T12:29:18.376Z,100198.59
2022-08-17T12:30:38.450Z,100200.47
2022-08-17T12:31:47.477Z,100194.69
2022-08-17T12:32:50.069Z,100195.59
2022-08-17T12:33:51.999Z,100191.63
2022-08-17T12:34:53.916Z,100189.91
2022-08-17T12:36:03.256Z,100189.53
2022-08-17T12:37:27.767Z,100187.50
2022-08-17T12:38:35.020Z,100189.03
2022-08-17T12:39:39.078Z,100184.63
2022-08-17T12:40:57.939Z,100189.91
2022-08-17T12:42:02.636Z,100185.13
2022-08-17T12:43:18.787Z,100194.81
2022-08-17T12:44:24.378Z,100186.41
2022-08-17T12:45:35.734Z,100185.56
2022-08-17T12:47:01.959Z,100181.47
2022-08-17T12:48:12.380Z,100178.38
2022-08-17T12:49:22.919Z,100174.38
2022-08-17T12:50:29.407Z,100181.38
2022-08-17T12:51:31.891Z,100181.78
2022-08-17T12:52:39.988Z,100176.81
2022-08-17T12:53:50.031Z,100175.28
2022-08-17T12:55:21.150Z,100175.91
2022-08-17T12:56:22.992Z,100172.94
2022-08-17T12:57:46.612Z,100177.34
2022-08-17T12:58:55.594Z,100172.69
2022-08-17T13:00:17.832Z,100173.88
2022-08-17T13:01:19.982Z,100172.50
2022-08-17T13:02:40.108Z,100173.66
2022-08-17T13:03:48.185Z,100168.72
2022-08-17T13:04:50.340Z,100177.50
2022-08-17T13:05:51.961Z,100171.97
2022-08-17T13:06:59.552Z,100172.50
2022-08-17T13:08:20.693Z,100167.03
2022-08-17T13:09:33.544Z,100167.56
2022-08-17T13:10:38.124Z,100160.81
2022-08-17T13:11:49.386Z,100160.75
2022-08-17T13:12:52.406Z,100165.75
2022-08-17T13:13:56.330Z,100161.84
2022-08-17T13:14:58.853Z,100170.28
2022-08-17T13:16:02.889Z,100165.25
2022-08-17T13:17:09.858Z,100170.56
2022-08-17T13:18:39.276Z,100165.41
2022-08-17T13:19:49.802Z,100164.34
2022-08-17T13:20:55.489Z,100166.63
2022-08-17T13:22:00.755Z,100163.50
2022-08-17T13:23:11.960Z,100164.66
2022-08-17T13:24:25.461Z,100171.50
2022-08-17T13:25:28.915Z,100175.09
2022-08-17T13:26:48.625Z,100160.41
2022-08-17T13:27:53.138Z,100160.00
2022-08-17T13:28:55.187Z,100154.16
2022-08-17T13:30:00.513Z,100148.84
2022-08-17T13:31:20.682Z,100151.34
2022-08-17T13:32:43.881Z,100146.03
2022-08-17T13:33:46.230Z,100151.94
2022-08-17T13:35:12.835Z,100151.91
2022-08-17T13:36:30.046Z,100152.91
2022-08-17T13:37:36.697Z,100153.75
2022-08-17T13:38:49.502Z,100143.88
2022-08-17T13:39:53.327Z,100138.31
2022-08-17T13:40:55.042Z,100143.06
2022-08-17T13:41:56.718Z,100138.16
2022-08-17T13:42:58.962Z,100155.06
2022-08-17T13:44:01.285Z,100149.72
2022-08-17T13:45:35.665Z,100146.25
2022-08-17T13:46:31.415Z,100144.97